Portada
METAR-TAF:

METAR-TAF

Aeroports :

Tarawa, Kiribati

latitud: 01-21N, longitud: 172-55E, altitud: 2 m

Observació

L'informe es va fer fa 37 minuts, a les 22:00 UTC
Vent 11 kt del Est/Sud-Est
Temperatura 29°C
Humitat 70%
Pressió 1010 hPa
Visibilitat 10 km o més
Escasses núvols a una alçada de 2000 ft

METAR: NGTA 042200Z 12011KT 9999 FEW020 29/23 Q1010

Hora: 12:37 (22:37 UTC)

Pronòstic

L'informe es va fer fa 5 hores i 35 minuts, a les 17:02 UTC
Pronòstic vàlid del 04 a les 18 UTC al 05 a les 18 UTC
Vent 10 kt del Est
Visibilitat 10 km o més
Núvols disperses a una alçada de 1900 ft
Núvols disperses a una alçada de 4000 ft
Probabilitat 40% :
Temporalment
l' 05 a les 06 UTC al 05 a les 18 UTC
Visibilitat: 5000 m
Cel ennuvolat a una alçada de 1500 ft
Escasses núvols a una alçada de 1800 ft, Cumulonimbus.
tempesta, pluja

TAF: NGTA 041702Z 0418/0518 10010KT 9999 SCT019 SCT040 PROB40 TEMPO 0506/0518 5000 TSRA BKN015 FEW018CB

Observacions i pronòstics meteorològics de més de 4000 aeroports (METAR i TAF).

Les estacions disponibles són els punts grocs i vermells al mapa.

Posi el ratolí al punt desitjat per veure el nom de l'estació.

Feu clic per veure les observacions i els pronòstics meteorològics.

Per canviar el mapa: feu clic els botons verds amb una creu de color negre per apropar; al botó verd amb un guió per allunyar la imatge; o en les fletxes verdes per a mapes adjacents.


METAR-TAF: